LDOC weather

Osijek-Čepin Airfield
Čepin, Osijek-Baranja County, Croatia

Public forecast

Using degrees Celsius for public forecast. Weather courtesy of forecast.io.

METAR (pilot weather report)

Closest report is Osijek Airport, 8.9 nm (16.5 km) ESE. Retrieved 2019/05/21 12:30 UTC (3 minutes ago):

LDOS 211230Z 25018KT 9999 FEW033 BKN040 18/10 Q1010

TAF (pilot weather forecast)

Forecast is more than 6 hours old.

Closest forecast is Osijek Airport, 8.9 nm (16.5 km) ESE. Retrieved 2019/05/21 06:27 UTC (6 hours ago):

TAF LDOS 210525Z 2106/2206 22010KT 9999 SCT035 TX20/2113Z TN10/2204Z PROB30 TEMPO 2113/2118 SHRA FEW030TCU SCT035